Time;durP1;ratioP1;P1;durP2;ratioP2;P2;SDS_P1;SDS_P2;PMS_P1;PMS_P2;Temp;Humidity;BMP_temperature;BMP_pressure;BME280_temperature;BME280_humidity;BME280_pressure;Samples;Min_cycle;Max_cycle;Signal;HPM_P1;HPM_P2
2023/07/04 00:09:17;;;;;;;0.10;0.10;;;;;;;19.49;100.00;101075.00;10397731;28;20042;-84
2023/07/04 00:40:26;;;;;;;3.67;0.70;;;;;;;19.06;100.00;101065.78;10412076;28;20046;-84
2023/07/04 00:45:52;;;;;;;0.10;0.05;;;;;;;18.62;100.00;101054.69;10420145;28;20160;-85
2023/07/04 00:51:21;;;;;;;0.10;0.10;;;;;;;19.04;100.00;101067.53;10417618;28;20039;-85
2023/07/04 00:56:41;;;;;;;0.10;0.10;;;;;;;18.92;100.00;101073.69;10420552;28;20403;-84
2023/07/04 01:02:02;;;;;;;0.03;0.03;;;;;;;18.80;100.00;101068.53;10410744;28;20033;-84
2023/07/04 01:07:32;;;;;;;0.10;0.10;;;;;;;18.64;100.00;101058.16;10420491;28;20472;-84
2023/07/04 01:12:51;;;;;;;0.00;0.00;;;;;;;18.93;100.00;101058.88;10394633;28;20092;-84
2023/07/04 01:18:10;;;;;;;0.25;0.20;;;;;;;19.03;100.00;101057.97;10410552;28;20546;-84
2023/07/04 01:23:54;;;;;;;0.13;0.10;;;;;;;19.32;100.00;101065.56;10398465;28;20033;-84
2023/07/04 01:29:01;;;;;;;0.30;0.30;;;;;;;19.34;100.00;101070.78;10403348;28;20068;-83
2023/07/04 01:34:05;;;;;;;0.00;0.00;;;;;;;19.61;100.00;101080.16;10402506;28;20080;-84
2023/07/04 01:39:14;;;;;;;0.10;0.10;;;;;;;19.34;100.00;101091.69;10404263;28;20053;-84
2023/07/04 01:44:18;;;;;;;0.82;0.73;;;;;;;18.97;100.00;101111.06;10414281;28;20493;-85
2023/07/04 01:49:20;;;;;;;0.65;0.10;;;;;;;19.58;100.00;101103.69;10396826;28;20072;-84
2023/07/04 01:54:22;;;;;;;0.03;0.00;;;;;;;18.88;100.00;101116.31;10412374;28;20046;-87
2023/07/04 01:59:24;;;;;;;0.10;0.10;;;;;;;18.67;100.00;101122.50;10411155;28;20049;-85
2023/07/04 02:04:25;;;;;;;0.45;0.00;;;;;;;19.09;100.00;101111.91;10409480;28;20491;-87
2023/07/04 02:09:29;;;;;;;0.00;0.00;;;;;;;19.71;100.00;101103.56;10408090;28;20046;-88
2023/07/04 02:14:31;;;;;;;0.00;0.00;;;;;;;19.39;100.00;101096.88;10411849;28;20042;-88
2023/07/04 02:19:33;;;;;;;0.30;0.10;;;;;;;19.52;100.00;101090.69;10395632;28;20081;-87
2023/07/04 02:24:34;;;;;;;0.20;0.20;;;;;;;19.43;100.00;101077.69;10412216;28;20041;-87
2023/07/04 02:29:37;;;;;;;0.20;0.20;;;;;;;19.70;100.00;101073.09;10427857;28;20053;-88
2023/07/04 02:34:39;;;;;;;0.10;0.00;;;;;;;19.79;100.00;101075.63;10410762;28;20049;-88
2023/07/04 02:39:42;;;;;;;0.00;0.00;;;;;;;19.90;100.00;101081.66;10411796;28;20045;-88
2023/07/04 02:44:44;;;;;;;0.00;0.00;;;;;;;19.47;100.00;101075.03;10405330;28;20136;-87
2023/07/04 02:49:46;;;;;;;0.30;0.05;;;;;;;19.27;100.00;101077.78;10410504;28;20049;-87
2023/07/04 02:54:49;;;;;;;0.00;0.00;;;;;;;19.61;100.00;101067.09;10410102;28;20122;-87
2023/07/04 02:59:52;;;;;;;0.73;0.20;;;;;;;19.38;100.00;101061.19;10397698;28;20048;-87
2023/07/04 03:04:54;;;;;;;0.05;0.05;;;;;;;19.33;100.00;101064.69;10410206;28;20037;-88
2023/07/04 03:10:00;;;;;;;0.00;0.00;;;;;;;19.15;100.00;101070.06;10411105;28;20046;-87
2023/07/04 03:15:06;;;;;;;3.88;0.30;;;;;;;19.16;100.00;101064.81;10410137;28;20140;-87
2023/07/04 03:20:13;;;;;;;0.20;0.17;;;;;;;19.37;100.00;101069.91;10395708;28;20045;-87
2023/07/04 03:25:18;;;;;;;0.35;0.17;;;;;;;19.78;100.00;101071.25;10394225;28;20136;-88
2023/07/04 03:30:24;;;;;;;0.08;0.08;;;;;;;19.20;100.00;101078.72;10409335;28;20045;-86
2023/07/04 03:35:29;;;;;;;0.35;0.20;;;;;;;18.88;100.00;101082.38;10418614;28;20562;-88
2023/07/04 03:40:35;;;;;;;0.15;0.10;;;;;;;19.60;100.00;101077.53;10396944;28;20045;-87
2023/07/04 03:45:37;;;;;;;0.00;0.00;;;;;;;18.84;100.00;101085.88;10409194;28;20045;-87
2023/07/04 03:50:39;;;;;;;0.00;0.00;;;;;;;18.80;100.00;101092.88;10405706;28;20050;-88
2023/07/04 03:55:41;;;;;;;0.60;0.10;;;;;;;18.88;100.00;101087.59;10396543;28;20464;-86
2023/07/04 04:00:47;;;;;;;0.17;0.10;;;;;;;18.69;100.00;101082.47;10411076;28;20621;-87
2023/07/04 04:05:49;;;;;;;0.65;0.40;;;;;;;18.62;100.00;101090.31;10392244;28;20045;-87
2023/07/04 04:10:51;;;;;;;0.00;0.00;;;;;;;18.38;100.00;101102.63;10425196;28;20103;-86
2023/07/04 04:15:53;;;;;;;0.00;0.00;;;;;;;18.70;100.00;101105.09;10410560;28;20069;-86
2023/07/04 04:20:55;;;;;;;0.20;0.10;;;;;;;18.57;100.00;101103.41;10430871;28;20045;-86
2023/07/04 04:25:57;;;;;;;0.30;0.20;;;;;;;18.93;100.00;101116.31;10432206;28;20076;-86
2023/07/04 04:30:59;;;;;;;0.10;0.10;;;;;;;19.06;100.00;101119.72;10415924;28;20429;-87
2023/07/04 04:36:02;;;;;;;0.30;0.20;;;;;;;18.81;100.00;101125.03;10416140;28;20045;-86
2023/07/04 04:41:05;;;;;;;0.00;0.00;;;;;;;19.23;100.00;101130.94;10416007;28;20547;-86
2023/07/04 04:46:07;;;;;;;0.65;0.20;;;;;;;19.26;100.00;101125.69;10415682;28;20041;-86
2023/07/04 04:51:12;;;;;;;0.03;0.03;;;;;;;18.99;100.00;101122.38;10403311;28;20064;-85
2023/07/04 04:56:15;;;;;;;0.52;0.52;;;;;;;19.10;100.00;101124.06;10416478;28;20060;-87
2023/07/04 05:01:22;;;;;;;0.00;0.00;;;;;;;19.40;100.00;101125.59;10432186;28;20067;-86
2023/07/04 05:06:26;;;;;;;0.75;0.45;;;;;;;19.08;100.00;101136.25;10398258;28;20041;-85
2023/07/04 05:11:31;;;;;;;0.22;0.22;;;;;;;19.72;100.00;101139.28;10414838;28;20050;-86
2023/07/04 05:16:32;;;;;;;1.33;1.10;;;;;;;19.87;100.00;101140.94;10408127;28;20042;-84
2023/07/04 05:21:34;;;;;;;0.10;0.10;;;;;;;19.72;100.00;101144.50;10414162;28;20051;-85
2023/07/04 05:26:37;;;;;;;0.80;0.47;;;;;;;19.72;100.00;101144.50;10430627;28;20044;-85
2023/07/04 05:31:39;;;;;;;1.65;0.55;;;;;;;19.69;100.00;101147.19;10401597;28;20057;-85
2023/07/04 05:36:41;;;;;;;0.22;0.22;;;;;;;20.04;100.00;101135.56;10410839;28;20041;-86
2023/07/04 05:41:42;;;;;;;0.68;0.40;;;;;;;20.20;100.00;101142.38;10411418;28;20049;-85
2023/07/04 05:46:44;;;;;;;0.10;0.00;;;;;;;20.49;100.00;101149.03;10429597;28;20049;-86
2023/07/04 05:51:46;;;;;;;0.10;0.10;;;;;;;21.07;100.00;101146.59;10395945;28;20063;-85
2023/07/04 05:56:52;;;;;;;0.73;0.38;;;;;;;21.46;100.00;101144.28;10429295;28;20396;-84
2023/07/04 06:01:53;;;;;;;0.00;0.00;;;;;;;21.06;100.00;101139.63;10399882;28;20053;-85
2023/07/04 06:06:55;;;;;;;4.90;0.47;;;;;;;20.83;100.00;101143.41;10412549;28;20052;-84
2023/07/04 06:11:57;;;;;;;0.65;0.20;;;;;;;20.70;100.00;101152.28;10405756;28;20053;-86
2023/07/04 06:17:00;;;;;;;0.30;0.17;;;;;;;21.31;100.00;101161.09;10385608;28;20055;-85
2023/07/04 06:22:05;;;;;;;0.95;0.52;;;;;;;21.48;100.00;101163.44;10406234;28;20095;-85
2023/07/04 06:27:07;;;;;;;0.32;0.10;;;;;;;21.60;100.00;101166.81;10404250;28;20077;-84
2023/07/04 06:32:09;;;;;;;1.10;0.40;;;;;;;21.40;100.00;101175.81;10402361;28;20056;-87
2023/07/04 06:37:11;;;;;;;0.30;0.30;;;;;;;21.45;100.00;101184.47;10409681;28;20045;-84
2023/07/04 06:42:12;;;;;;;0.20;0.20;;;;;;;21.46;100.00;101183.59;10425093;28;20541;-85
2023/07/04 06:47:16;;;;;;;0.17;0.17;;;;;;;22.37;100.00;101180.34;10411257;28;20515;-84
2023/07/04 06:52:18;;;;;;;0.35;0.28;;;;;;;22.37;100.00;101191.72;10412793;28;20488;-85
2023/07/04 06:57:20;;;;;;;17.90;0.60;;;;;;;22.94;100.00;101187.13;10427433;28;20047;-83
2023/07/04 07:02:23;;;;;;;0.25;0.17;;;;;;;23.30;100.00;101192.50;10407764;28;20064;-83
2023/07/04 07:07:25;;;;;;;0.75;0.40;;;;;;;23.45;100.00;101188.66;10426047;28;20057;-83
2023/07/04 07:12:27;;;;;;;0.28;0.20;;;;;;;22.84;100.00;101191.72;10401732;28;20088;-84
2023/07/04 07:17:29;;;;;;;1.90;0.50;;;;;;;22.43;100.00;101191.63;10413654;28;20054;-85
2023/07/04 07:22:30;;;;;;;0.10;0.10;;;;;;;22.19;100.00;101195.53;10389558;28;20531;-85
2023/07/04 07:27:32;;;;;;;1.00;0.63;;;;;;;23.02;100.00;101192.19;10409590;28;20049;-84
2023/07/04 07:32:34;;;;;;;0.88;0.40;;;;;;;23.95;100.00;101193.59;10409341;28;20045;-85
2023/07/04 07:37:37;;;;;;;0.10;0.10;;;;;;;22.95;100.00;101215.97;10394877;28;20440;-85
2023/07/04 07:42:38;;;;;;;1.58;0.60;;;;;;;23.71;100.00;101202.94;10409234;28;20049;-85
2023/07/04 07:47:40;;;;;;;0.98;0.32;;;;;;;23.42;100.00;101202.72;10407400;28;20063;-85
2023/07/04 07:52:42;;;;;;;0.10;0.10;;;;;;;23.43;100.00;101196.56;10395279;28;20049;-85
2023/07/04 07:57:43;;;;;;;0.38;0.28;;;;;;;22.91;100.00;101192.41;10410295;28;20055;-85
2023/07/04 08:02:45;;;;;;;0.00;0.00;;;;;;;22.37;100.00;101186.47;10410799;28;20041;-86
2023/07/04 08:07:47;;;;;;;0.38;0.38;;;;;;;23.55;100.00;101179.63;10410339;28;20046;-85
2023/07/04 08:12:48;;;;;;;1.27;0.57;;;;;;;23.39;100.00;101176.50;10409664;28;20042;-86
2023/07/04 08:17:50;;;;;;;0.52;0.30;;;;;;;23.09;100.00;101178.91;10410520;28;20423;-85
2023/07/04 08:22:52;;;;;;;0.30;0.20;;;;;;;22.28;100.00;101198.00;10406489;28;20056;-86
2023/07/04 08:27:54;;;;;;;0.43;0.38;;;;;;;22.25;100.00;101198.06;10394849;28;20500;-86
2023/07/04 08:32:55;;;;;;;1.45;1.17;;;;;;;22.79;100.00;101194.44;10399222;28;20053;-86
2023/07/04 08:37:57;;;;;;;0.20;0.20;;;;;;;23.09;100.00;101186.78;10395282;28;20472;-86
2023/07/04 08:43:00;;;;;;;1.13;0.43;;;;;;;23.05;100.00;101198.25;10402792;28;20404;-85
2023/07/04 08:48:03;;;;;;;2.63;0.20;;;;;;;22.89;100.00;101202.13;10421411;28;20049;-86
2023/07/04 08:53:10;;;;;;;0.32;0.10;;;;;;;22.98;100.00;101199.28;10394422;28;20051;-83
2023/07/04 08:58:15;;;;;;;4.68;0.30;;;;;;;22.86;100.00;101210.91;10406297;28;20057;-84
2023/07/04 09:03:24;;;;;;;1.17;0.40;;;;;;;22.81;100.00;101229.41;10408571;28;20041;-86
2023/07/04 09:08:59;;;;;;;0.20;0.10;;;;;;;23.40;100.00;101230.81;10434668;28;20381;-83
2023/07/04 09:14:06;;;;;;;0.05;0.00;;;;;;;23.39;100.00;101234.34;10416745;28;20130;-82
2023/07/04 09:19:10;;;;;;;0.10;0.10;;;;;;;23.95;100.00;101246.22;10417986;28;20080;-84
2023/07/04 09:24:12;;;;;;;0.22;0.22;;;;;;;24.08;100.00;101245.03;10412827;28;20048;-82
2023/07/04 09:29:17;;;;;;;0.57;0.32;;;;;;;23.68;100.00;101248.59;10432871;28;20054;-82
2023/07/04 09:34:31;;;;;;;0.47;0.20;;;;;;;24.47;100.00;101251.94;10417764;28;20148;-83
2023/07/04 09:39:51;;;;;;;0.52;0.40;;;;;;;24.92;100.00;101250.72;10409716;28;20092;-83
2023/07/04 09:44:56;;;;;;;0.73;0.30;;;;;;;24.84;100.00;101247.44;10417462;28;20044;-83
2023/07/04 09:50:31;;;;;;;0.20;0.03;;;;;;;24.73;100.00;101255.63;10429122;28;20050;-83
2023/07/04 09:55:32;;;;;;;0.70;0.43;;;;;;;24.63;100.00;101259.41;10416321;28;20051;-82
2023/07/04 10:00:34;;;;;;;1.55;0.75;;;;;;;24.42;100.00;101266.13;10412281;28;20416;-82
2023/07/04 10:05:37;;;;;;;0.55;0.20;;;;;;;25.05;100.00;101260.91;10413497;28;20488;-82
2023/07/04 10:10:53;;;;;;;0.17;0.10;;;;;;;25.55;100.00;101261.19;10430890;28;20438;-80
2023/07/04 10:15:56;;;;;;;0.68;0.32;;;;;;;24.99;100.00;101256.69;10423499;28;20561;-82
2023/07/04 10:21:00;;;;;;;3.35;0.28;;;;;;;26.62;100.00;101236.53;10415149;28;20084;-82
2023/07/04 10:26:05;;;;;;;0.40;0.28;;;;;;;24.99;100.00;101240.88;10392980;28;20053;-82
2023/07/04 10:31:14;;;;;;;0.00;0.00;;;;;;;24.47;100.00;101253.69;10415176;28;20399;-81
2023/07/04 10:36:26;;;;;;;0.00;0.00;;;;;;;25.48;100.00;101249.94;10413954;28;20057;-82
2023/07/04 10:41:36;;;;;;;2.20;0.70;;;;;;;25.49;100.00;101256.97;10399051;28;20132;-82
2023/07/04 10:46:47;;;;;;;0.00;0.00;;;;;;;26.55;100.00;101254.38;10418549;28;21371;-82
2023/07/04 10:51:56;;;;;;;0.20;0.20;;;;;;;25.83;100.00;101260.31;10413155;28;20094;-83
2023/07/04 10:57:02;;;;;;;;;;;;;;;25.45;100.00;101257.97;10411704;28;20045;-81
2023/07/04 11:02:13;;;;;;;0.45;0.30;;;;;;;24.98;100.00;101263.69;10433138;28;19921;-81
2023/07/04 11:07:25;;;;;;;3.42;0.30;;;;;;;24.07;100.00;101267.00;10404656;28;20459;-82
2023/07/04 11:12:29;;;;;;;0.50;0.25;;;;;;;24.58;100.00;101256.91;10395288;28;20045;-83
2023/07/04 11:17:34;;;;;;;2.60;0.70;;;;;;;26.30;99.93;101257.00;10413825;28;20446;-81
2023/07/04 11:22:51;;;;;;;0.22;0.20;;;;;;;25.52;98.41;101263.91;10403352;28;20058;-83
2023/07/04 11:28:17;;;;;;;2.88;0.30;;;;;;;25.38;100.00;101274.91;10401135;28;20049;-83
2023/07/04 11:33:41;;;;;;;2.55;1.02;;;;;;;27.01;97.43;101272.13;10426805;28;20060;-82
2023/07/04 11:38:50;;;;;;;0.47;0.20;;;;;;;27.15;98.48;101269.84;10421066;28;20128;-81
2023/07/04 11:43:54;;;;;;;0.43;0.00;;;;;;;26.33;95.65;101274.53;10404014;28;20140;-83
2023/07/04 11:48:57;;;;;;;3.35;0.82;;;;;;;27.49;97.64;101273.88;10388615;28;20042;-81
2023/07/04 11:54:01;;;;;;;0.00;0.00;;;;;;;27.14;94.94;101277.84;10403239;28;20041;-87
2023/07/04 11:59:11;;;;;;;0.32;0.17;;;;;;;26.69;92.30;101279.47;10411913;28;20080;-87
2023/07/04 12:04:13;;;;;;;0.65;0.10;;;;;;;26.83;96.29;101273.69;10407362;28;20045;-85
2023/07/04 12:09:24;;;;;;;0.03;0.03;;;;;;;26.46;94.27;101275.84;10412683;28;20062;-84
2023/07/04 12:14:28;;;;;;;1.10;0.55;;;;;;;26.20;96.97;101285.50;10417666;28;20476;-84
2023/07/04 12:19:29;;;;;;;0.52;0.35;;;;;;;25.61;96.99;101281.25;10406061;28;20049;-85
2023/07/04 12:24:33;;;;;;;1.33;0.15;;;;;;;25.79;97.34;101290.34;10407981;28;20049;-83
2023/07/04 12:29:43;;;;;;;0.10;0.10;;;;;;;25.01;95.99;101287.34;10396309;28;20050;-86
2023/07/04 12:34:47;;;;;;;0.10;0.10;;;;;;;26.28;93.12;101282.63;10394380;28;20053;-85
2023/07/04 12:39:52;;;;;;;0.90;0.50;;;;;;;26.31;95.01;101287.78;10414508;28;20484;-87
2023/07/04 12:44:55;;;;;;;6.80;0.45;;;;;;;25.50;99.33;101278.94;10418068;28;20645;-85
2023/07/04 12:49:58;;;;;;;0.10;0.10;;;;;;;26.91;98.67;101272.50;10418866;28;20041;-85
2023/07/04 12:55:06;;;;;;;0.10;0.08;;;;;;;26.49;95.87;101274.88;10418422;28;20046;-85
2023/07/04 13:00:12;;;;;;;0.30;0.28;;;;;;;26.98;92.71;101261.69;10418581;28;20084;-86
2023/07/04 13:05:16;;;;;;;4.15;3.80;;;;;;;26.62;93.22;101265.59;10417492;28;20045;-85
2023/07/04 13:10:33;;;;;;;0.20;0.20;;;;;;;27.08;95.49;101266.56;10417024;28;20060;-85
2023/07/04 13:15:35;;;;;;;1.30;0.45;;;;;;;26.75;93.37;101279.22;10416502;28;20046;-84
2023/07/04 13:20:38;;;;;;;1.40;0.10;;;;;;;26.23;93.74;101285.44;10417470;28;20400;-85
2023/07/04 13:25:41;;;;;;;0.00;0.00;;;;;;;27.32;94.17;101266.56;10439867;28;20040;-85
2023/07/04 13:30:46;;;;;;;0.25;0.03;;;;;;;26.77;90.93;101277.41;10423729;28;20151;-86
2023/07/04 13:35:50;;;;;;;0.00;0.00;;;;;;;27.16;93.32;101271.56;10401990;28;20493;-86
2023/07/04 13:40:52;;;;;;;0.00;0.00;;;;;;;25.96;91.78;101277.47;10400336;28;20049;-86
2023/07/04 13:45:54;;;;;;;0.00;0.00;;;;;;;27.30;90.47;101260.47;10429778;28;20041;-86
2023/07/04 13:50:56;;;;;;;0.00;0.00;;;;;;;26.79;92.60;101262.34;10410156;28;20049;-87
2023/07/04 13:55:57;;;;;;;3.70;1.33;;;;;;;26.70;92.23;101268.81;10431366;28;20045;-86
2023/07/04 14:00:59;;;;;;;0.20;0.20;;;;;;;27.28;91.90;101259.66;10433301;28;20496;-83
2023/07/04 14:06:05;;;;;;;3.20;0.28;;;;;;;26.75;91.08;101258.09;10430247;28;20045;-80
2023/07/04 14:11:13;;;;;;;0.00;0.00;;;;;;;26.40;90.82;101265.47;10431978;28;20124;-83
2023/07/04 14:16:19;;;;;;;0.03;0.03;;;;;;;27.07;96.50;101261.31;10417621;28;20048;-83
2023/07/04 14:21:40;;;;;;;2.15;0.60;;;;;;;27.83;92.47;101255.75;10416851;28;20049;-82
2023/07/04 14:26:42;;;;;;;0.00;0.00;;;;;;;27.59;94.33;101247.06;10415807;28;20057;-84
2023/07/04 14:31:44;;;;;;;3.60;3.40;;;;;;;27.62;94.47;101252.19;10407264;28;20060;-84
2023/07/04 14:36:45;;;;;;;0.17;0.10;;;;;;;27.43;90.56;101249.44;10415776;28;20063;-83
2023/07/04 14:41:47;;;;;;;0.10;0.10;;;;;;;27.01;93.56;101259.81;10408292;28;20049;-84
2023/07/04 14:46:52;;;;;;;0.90;0.40;;;;;;;27.40;91.13;101251.22;10421984;28;20041;-83
2023/07/04 14:51:53;;;;;;;0.30;0.10;;;;;;;27.86;91.03;101251.22;10385081;28;20059;-84
2023/07/04 14:56:56;;;;;;;0.20;0.10;;;;;;;27.69;92.06;101245.72;10429143;28;20052;-84
2023/07/04 15:01:58;;;;;;;0.15;0.05;;;;;;;27.17;89.39;101240.72;10413242;28;20045;-85
2023/07/04 15:07:00;;;;;;;0.22;0.15;;;;;;;27.61;91.85;101235.47;10396770;28;20049;-85
2023/07/04 15:12:02;;;;;;;0.00;0.00;;;;;;;27.96;92.48;101235.78;10410441;28;20038;-85
2023/07/04 15:17:03;;;;;;;0.30;0.30;;;;;;;27.81;92.58;101239.06;10398989;28;20049;-84
2023/07/04 15:22:05;;;;;;;0.20;0.20;;;;;;;26.65;90.81;101235.53;10412879;28;20045;-86
2023/07/04 15:27:07;;;;;;;0.00;0.00;;;;;;;26.52;91.30;101243.94;10427895;28;20583;-85
2023/07/04 15:32:08;;;;;;;0.32;0.25;;;;;;;26.83;89.71;101242.84;10413245;28;20442;-83
2023/07/04 15:37:13;;;;;;;0.57;0.52;;;;;;;26.99;93.32;101231.69;10410820;28;20096;-82
2023/07/04 15:42:15;;;;;;;0.30;0.13;;;;;;;27.11;93.36;101228.56;10434472;28;20053;-83
2023/07/04 15:47:17;;;;;;;0.10;0.10;;;;;;;26.46;94.17;101230.94;10414505;28;20045;-84
2023/07/04 15:52:19;;;;;;;0.10;0.10;;;;;;;26.70;93.00;101220.38;10430904;28;20049;-83
2023/07/04 15:57:20;;;;;;;0.10;0.10;;;;;;;27.04;96.12;101221.81;10411849;28;20046;-83
2023/07/04 16:02:22;;;;;;;0.00;0.00;;;;;;;26.97;95.08;101222.94;10432582;28;20069;-83
2023/07/04 16:07:24;;;;;;;0.10;0.00;;;;;;;27.63;95.20;101222.16;10413594;28;20046;-83
2023/07/04 16:12:25;;;;;;;0.00;0.00;;;;;;;27.31;93.78;101205.75;10425412;28;20053;-84
2023/07/04 16:17:27;;;;;;;0.77;0.35;;;;;;;27.41;96.11;101207.13;10421202;28;20037;-82
2023/07/04 16:22:29;;;;;;;0.30;0.30;;;;;;;27.03;92.70;101198.91;10422029;28;20052;-83
2023/07/04 16:27:30;;;;;;;0.20;0.10;;;;;;;26.95;95.12;101199.22;10419857;28;20049;-83
2023/07/04 16:32:32;;;;;;;0.08;0.08;;;;;;;27.22;96.79;101191.97;10400423;28;20053;-83
2023/07/04 16:37:34;;;;;;;0.00;0.00;;;;;;;27.26;95.81;101187.44;10420788;28;20077;-78
2023/07/04 16:42:36;;;;;;;0.10;0.05;;;;;;;26.98;94.70;101174.44;10402205;28;20045;-82
2023/07/04 16:47:37;;;;;;;0.40;0.40;;;;;;;27.23;93.19;101169.06;10420023;28;20484;-82
2023/07/04 16:52:39;;;;;;;0.08;0.08;;;;;;;27.57;94.99;101169.50;10411395;28;20049;-83
2023/07/04 16:57:41;;;;;;;0.30;0.10;;;;;;;27.90;94.91;101168.97;10415861;28;20077;-83
2023/07/04 17:02:43;;;;;;;0.35;0.30;;;;;;;27.82;95.14;101164.88;10415921;28;20054;-83
2023/07/04 17:07:45;;;;;;;0.60;0.40;;;;;;;27.77;97.00;101161.56;10415907;28;20416;-82
2023/07/04 17:12:47;;;;;;;0.00;0.00;;;;;;;27.74;95.45;101159.03;10416329;28;20053;-82
2023/07/04 17:17:49;;;;;;;0.05;0.05;;;;;;;27.28;100.00;101155.66;10416392;28;20480;-82
2023/07/04 17:22:50;;;;;;;0.00;0.00;;;;;;;27.78;98.18;101155.34;10428452;28;20095;-83
2023/07/04 17:27:55;;;;;;;0.70;0.45;;;;;;;26.97;99.25;101154.22;10408855;28;20037;-82
2023/07/04 17:32:56;;;;;;;0.00;0.00;;;;;;;27.10;98.06;101144.88;10415426;28;20431;-82
2023/07/04 17:37:58;;;;;;;0.00;0.00;;;;;;;26.83;99.57;101142.41;10414811;28;20059;-83
2023/07/04 17:43:00;;;;;;;0.00;0.00;;;;;;;27.18;100.00;101142.78;10430323;28;20049;-83
2023/07/04 17:48:01;;;;;;;0.00;0.00;;;;;;;26.77;100.00;101142.63;10408222;28;20050;-84
2023/07/04 17:53:04;;;;;;;0.38;0.20;;;;;;;26.26;100.00;101137.41;10412322;28;20058;-84
2023/07/04 17:58:05;;;;;;;0.00;0.00;;;;;;;26.60;100.00;101135.31;10414013;28;20042;-78
2023/07/04 18:03:07;;;;;;;0.03;0.00;;;;;;;26.80;100.00;101142.50;10417257;28;20057;-78
2023/07/04 18:08:09;;;;;;;0.00;0.00;;;;;;;26.63;100.00;101134.31;10413057;28;20037;-78
2023/07/04 18:13:11;;;;;;;0.25;0.10;;;;;;;26.35;100.00;101138.00;10411810;28;20069;-78
2023/07/04 18:18:13;;;;;;;0.00;0.00;;;;;;;26.42;100.00;101131.56;10411358;28;20056;-78
2023/07/04 18:23:15;;;;;;;0.08;0.08;;;;;;;26.47;100.00;101120.84;10407269;28;20052;-78
2023/07/04 18:28:19;;;;;;;0.00;0.00;;;;;;;25.54;100.00;101127.56;10415547;28;20060;-79
2023/07/04 18:33:21;;;;;;;0.00;0.00;;;;;;;26.12;100.00;101113.28;10410896;28;20058;-79
2023/07/04 18:38:23;;;;;;;0.00;0.00;;;;;;;26.20;100.00;101116.50;10410651;28;20225;-79
2023/07/04 18:43:24;;;;;;;0.05;0.03;;;;;;;25.61;100.00;101094.78;10410304;28;20057;-79
2023/07/04 18:48:26;;;;;;;0.03;0.00;;;;;;;25.38;100.00;101090.31;10418737;28;20045;-79
2023/07/04 18:53:27;;;;;;;0.10;0.10;;;;;;;25.70;100.00;101092.75;10410492;28;20046;-79
2023/07/04 18:58:29;;;;;;;0.00;0.00;;;;;;;26.21;100.00;101088.34;10412011;28;20503;-79
2023/07/04 19:03:31;;;;;;;0.15;0.15;;;;;;;25.38;100.00;101089.38;10411377;28;20065;-79
2023/07/04 19:08:33;;;;;;;0.00;0.00;;;;;;;25.02;100.00;101094.03;10405812;28;20069;-79
2023/07/04 19:13:35;;;;;;;0.00;0.00;;;;;;;25.53;100.00;101093.34;10406973;28;20433;-80
2023/07/04 19:18:37;;;;;;;0.20;0.20;;;;;;;25.00;100.00;101085.31;10390292;28;20080;-80
2023/07/04 19:23:38;;;;;;;0.10;0.00;;;;;;;24.43;100.00;101099.31;10412589;28;20069;-81
2023/07/04 19:28:40;;;;;;;0.10;0.10;;;;;;;23.79;100.00;101093.13;10410431;28;20041;-83
2023/07/04 19:33:42;;;;;;;0.20;0.17;;;;;;;23.77;100.00;101098.44;10408789;28;20057;-83
2023/07/04 19:38:43;;;;;;;0.17;0.10;;;;;;;23.36;100.00;101086.34;10425623;28;20068;-84
2023/07/04 19:43:45;;;;;;;0.82;0.45;;;;;;;23.16;100.00;101098.16;10408599;28;20694;-83
2023/07/04 19:48:47;;;;;;;0.00;0.00;;;;;;;22.42;100.00;101092.78;10407999;28;20432;-84
2023/07/04 19:53:50;;;;;;;0.52;0.22;;;;;;;22.13;100.00;101094.19;10409979;28;20056;-85
2023/07/04 19:58:52;;;;;;;0.57;0.57;;;;;;;22.51;100.00;101104.84;10397045;28;20068;-84
2023/07/04 20:03:54;;;;;;;1.02;0.85;;;;;;;22.67;100.00;101110.66;10408077;28;20056;-85
2023/07/04 20:08:56;;;;;;;0.88;0.30;;;;;;;22.26;100.00;101109.69;10405082;28;20044;-85
2023/07/04 20:13:58;;;;;;;0.17;0.17;;;;;;;21.91;100.00;101114.69;10404782;28;20077;-85
2023/07/04 20:19:00;;;;;;;1.20;0.30;;;;;;;22.49;100.00;101091.75;10409232;28;20095;-87
2023/07/04 20:24:02;;;;;;;2.42;0.32;;;;;;;22.58;100.00;101095.94;10408815;28;20538;-87
2023/07/04 20:29:04;;;;;;;0.10;0.10;;;;;;;23.55;100.00;101089.38;10410895;28;20061;-87
2023/07/04 20:34:06;;;;;;;0.13;0.13;;;;;;;21.72;100.00;101066.97;10417001;28;20046;-88
2023/07/04 20:39:08;;;;;;;0.10;0.10;;;;;;;21.24;100.00;101037.19;10403342;28;20060;-88
2023/07/04 20:44:09;;;;;;;0.25;0.25;;;;;;;21.29;100.00;101010.03;10395336;28;20060;-87
2023/07/04 20:49:11;;;;;;;0.68;0.68;;;;;;;21.75;100.00;100996.13;10395781;28;20206;-86
2023/07/04 20:54:13;;;;;;;0.47;0.47;;;;;;;21.74;100.00;100981.28;10390016;28;20144;-87
2023/07/04 20:59:15;;;;;;;0.10;0.10;;;;;;;22.08;100.00;100959.59;10413753;28;20136;-88
2023/07/04 21:04:17;;;;;;;0.10;0.10;;;;;;;21.96;100.00;100952.00;10399896;28;20136;-89
2023/07/04 21:09:21;;;;;;;0.10;0.10;;;;;;;21.63;100.00;100941.31;10418473;28;20072;-89
2023/07/04 21:14:24;;;;;;;0.00;0.00;;;;;;;21.75;100.00;100930.56;10406194;28;20816;-88
2023/07/04 21:19:26;;;;;;;0.45;0.30;;;;;;;22.05;100.00;100924.69;10418691;28;20143;-89
2023/07/04 21:24:28;;;;;;;0.00;0.00;;;;;;;21.98;100.00;100916.09;10411513;28;20049;-89
2023/07/04 21:29:29;;;;;;;0.70;0.30;;;;;;;22.13;100.00;100910.53;10407518;28;20049;-88
2023/07/04 21:34:33;;;;;;;0.75;0.35;;;;;;;21.38;100.00;100915.53;10398626;28;20408;-87
2023/07/04 21:39:35;;;;;;;0.00;0.00;;;;;;;21.89;100.00;100900.56;10415522;28;20484;-88
2023/07/04 21:44:37;;;;;;;0.17;0.17;;;;;;;21.51;100.00;100901.28;10406959;28;20046;-88
2023/07/04 21:49:40;;;;;;;0.20;0.17;;;;;;;21.86;100.00;100894.47;10412905;28;20038;-88
2023/07/04 21:54:42;;;;;;;0.10;0.05;;;;;;;21.90;100.00;100891.81;10406297;28;20245;-89
2023/07/04 21:59:46;;;;;;;0.60;0.47;;;;;;;22.18;100.00;100892.91;10410766;28;20045;-88
2023/07/04 22:04:48;;;;;;;0.28;0.13;;;;;;;22.21;100.00;100875.38;10410519;28;20139;-88
2023/07/04 22:09:52;;;;;;;0.17;0.13;;;;;;;21.05;100.00;100858.50;10417065;28;20416;-85
2023/07/04 22:14:54;;;;;;;0.20;0.10;;;;;;;22.64;100.00;100848.13;10411996;28;20045;-88
2023/07/04 22:19:55;;;;;;;0.25;0.25;;;;;;;22.47;100.00;100827.56;10413335;28;20056;-88
2023/07/04 22:24:57;;;;;;;0.17;0.17;;;;;;;22.26;100.00;100821.03;10403756;28;20140;-88
2023/07/04 22:29:59;;;;;;;3.50;0.40;;;;;;;22.89;100.00;100800.22;10396518;28;20061;-88
2023/07/04 22:35:01;;;;;;;0.50;0.20;;;;;;;21.84;100.00;100794.00;10428575;28;20069;-88
2023/07/04 22:40:03;;;;;;;1.13;0.20;;;;;;;21.66;100.00;100779.56;10428724;28;20060;-87
2023/07/04 22:45:05;;;;;;;0.10;0.10;;;;;;;22.16;100.00;100762.66;10412850;28;20048;-87
2023/07/04 22:50:07;;;;;;;0.30;0.30;;;;;;;21.18;100.00;100759.59;10428115;28;20042;-87
2023/07/04 22:55:09;;;;;;;2.63;0.30;;;;;;;21.64;100.00;100735.91;10427962;28;20052;-86
2023/07/04 23:00:11;;;;;;;0.17;0.15;;;;;;;21.28;100.00;100738.41;10414575;28;20041;-87
2023/07/04 23:05:14;;;;;;;1.10;0.47;;;;;;;21.70;100.00;100712.19;10393778;28;20049;-86
2023/07/04 23:10:15;;;;;;;0.55;0.40;;;;;;;21.65;100.00;100708.78;10393724;28;20530;-86
2023/07/04 23:15:18;;;;;;;2.05;0.75;;;;;;;21.69;100.00;100694.72;10393805;28;20045;-86
2023/07/04 23:20:20;;;;;;;1.40;0.30;;;;;;;21.70;100.00;100675.47;10410509;28;20059;-86
2023/07/04 23:25:22;;;;;;;2.40;1.17;;;;;;;21.61;100.00;100665.22;10411150;28;20042;-86
2023/07/04 23:30:24;;;;;;;0.80;0.70;;;;;;;21.31;100.00;100651.91;10410143;28;20381;-90
2023/07/04 23:35:25;;;;;;;0.82;0.55;;;;;;;20.86;100.00;100630.16;10409404;28;20050;-89
2023/07/04 23:40:27;;;;;;;0.63;0.52;;;;;;;21.17;100.00;100621.63;10403220;28;20048;-89